Time;durP1;ratioP1;P1;durP2;ratioP2;P2;SDS_P1;SDS_P2;PMS_P1;PMS_P2;Temp;Humidity;BMP_temperature;BMP_pressure;BME280_temperature;BME280_humidity;BME280_pressure;Samples;Min_cycle;Max_cycle;Signal;HPM_P1;HPM_P2
2022/02/28 00:01:39;;;;;;;17.00;10.83;;;;;;;;;;5070620;27;20476;-75
2022/02/28 00:04:11;;;;;;;15.57;10.70;;;;;;;;;;5111544;27;20470;-75
2022/02/28 00:06:39;;;;;;;15.13;10.77;;;;;;;;;;5038657;27;20477;-75
2022/02/28 00:09:12;;;;;;;18.70;10.73;;;;;;;;;;5041058;27;20472;-74
2022/02/28 00:11:41;;;;;;;20.30;10.17;;;;;;;;;;5040670;27;20549;-74
2022/02/28 00:14:08;;;;;;;19.17;10.40;;;;;;;;;;5038190;27;20801;-74
2022/02/28 00:16:43;;;;;;;16.23;10.20;;;;;;;;;;5094376;27;20486;-74
2022/02/28 00:19:21;;;;;;;16.73;10.00;;;;;;;;;;5139034;27;20518;-75
2022/02/28 00:21:49;;;;;;;18.60;11.00;;;;;;;;;;5138378;27;20621;-74
2022/02/28 00:24:17;;;;;;;17.33;10.97;;;;;;;;;;5133479;27;20901;-74
2022/02/28 00:26:47;;;;;;;21.37;12.57;;;;;;;;;;5138365;27;20469;-74
2022/02/28 00:29:15;;;;;;;20.07;11.70;;;;;;;;;;5090672;27;20469;-74
2022/02/28 00:31:44;;;;;;;18.33;11.53;;;;;;;;;;5037935;27;20474;-74
2022/02/28 00:34:17;;;;;;;18.77;11.30;;;;;;;;;;5037854;27;20528;-75
2022/02/28 00:36:47;;;;;;;19.27;11.17;;;;;;;;;;5037542;27;20494;-74
2022/02/28 00:39:15;;;;;;;18.07;10.57;;;;;;;;;;5039997;27;20447;-75
2022/02/28 00:41:48;;;;;;;20.57;10.80;;;;;;;;;;5040706;27;20462;-74
2022/02/28 00:44:16;;;;;;;16.87;11.13;;;;;;;;;;5099243;27;20582;-74
2022/02/28 00:46:44;;;;;;;19.83;11.27;;;;;;;;;;5135455;27;20458;-74
2022/02/28 00:49:11;;;;;;;18.50;11.53;;;;;;;;;;5137615;27;20978;-74
2022/02/28 00:51:41;;;;;;;19.30;10.57;;;;;;;;;;5137647;27;20927;-74
2022/02/28 00:54:13;;;;;;;15.17;9.57;;;;;;;;;;5137755;27;20457;-75
2022/02/28 00:56:41;;;;;;;16.13;11.50;;;;;;;;;;5134420;27;20551;-74
2022/02/28 00:59:10;;;;;;;21.73;10.70;;;;;;;;;;5137781;27;20472;-74
2022/02/28 01:01:38;;;;;;;15.83;9.73;;;;;;;;;;5138026;27;20465;-74
2022/02/28 01:04:07;;;;;;;21.13;10.60;;;;;;;;;;5135165;27;20885;-74
2022/02/28 01:06:35;;;;;;;22.37;11.57;;;;;;;;;;5119777;27;20472;-75
2022/02/28 01:09:08;;;;;;;20.77;11.17;;;;;;;;;;5137233;27;20476;-74
2022/02/28 01:11:37;;;;;;;15.60;9.30;;;;;;;;;;5042652;27;20459;-74
2022/02/28 01:14:05;;;;;;;16.30;11.60;;;;;;;;;;5098559;27;20465;-74
2022/02/28 01:16:33;;;;;;;18.53;10.53;;;;;;;;;;5136908;27;20527;-74
2022/02/28 01:19:01;;;;;;;17.20;10.60;;;;;;;;;;5129963;27;20548;-75
2022/02/28 01:21:28;;;;;;;19.93;12.00;;;;;;;;;;5036654;27;20924;-74
2022/02/28 01:23:56;;;;;;;21.30;12.23;;;;;;;;;;5036252;27;20474;-75
2022/02/28 01:26:24;;;;;;;17.20;10.60;;;;;;;;;;5119783;27;20465;-75
2022/02/28 01:28:54;;;;;;;18.00;10.67;;;;;;;;;;5137031;27;20465;-74
2022/02/28 01:31:21;;;;;;;18.60;10.73;;;;;;;;;;5132720;27;20536;-74
2022/02/28 01:33:49;;;;;;;25.13;11.73;;;;;;;;;;5038943;27;20912;-75
2022/02/28 01:36:20;;;;;;;20.67;12.07;;;;;;;;;;5090182;27;20539;-74
2022/02/28 01:38:48;;;;;;;17.67;10.10;;;;;;;;;;5036859;27;20509;-74
2022/02/28 01:41:16;;;;;;;18.87;10.90;;;;;;;;;;5036796;27;20498;-75
2022/02/28 01:43:51;;;;;;;21.00;11.70;;;;;;;;;;5039593;27;20474;-74
2022/02/28 01:46:21;;;;;;;25.10;11.40;;;;;;;;;;5103241;27;20542;-74
2022/02/28 01:48:48;;;;;;;15.57;9.93;;;;;;;;;;5140265;27;20450;-74
2022/02/28 01:51:17;;;;;;;19.17;11.20;;;;;;;;;;5095370;27;20534;-74
2022/02/28 01:53:44;;;;;;;18.43;11.30;;;;;;;;;;5141256;27;20458;-74
2022/02/28 01:56:14;;;;;;;17.77;11.20;;;;;;;;;;5137075;27;20533;-73
2022/02/28 01:58:42;;;;;;;21.03;10.50;;;;;;;;;;5131759;27;20768;-74
2022/02/28 02:01:10;;;;;;;22.53;12.63;;;;;;;;;;5104791;27;20469;-74
2022/02/28 02:03:39;;;;;;;19.53;11.23;;;;;;;;;;5041029;27;20447;-74
2022/02/28 02:06:09;;;;;;;25.73;13.97;;;;;;;;;;5091429;27;20461;-75
2022/02/28 02:08:37;;;;;;;21.10;9.83;;;;;;;;;;5137265;27;20528;-74
2022/02/28 02:11:05;;;;;;;24.17;12.30;;;;;;;;;;5134138;27;20465;-74
2022/02/28 02:13:34;;;;;;;22.37;14.03;;;;;;;;;;5088330;27;20482;-74
2022/02/28 02:16:02;;;;;;;25.53;12.40;;;;;;;;;;5040122;27;20597;-74
2022/02/28 02:18:30;;;;;;;17.70;11.57;;;;;;;;;;5042424;27;20458;-75
2022/02/28 02:21:01;;;;;;;20.50;11.20;;;;;;;;;;5039132;27;20461;-74
2022/02/28 02:23:30;;;;;;;18.47;10.97;;;;;;;;;;5137625;27;20450;-74
2022/02/28 02:26:01;;;;;;;18.93;11.37;;;;;;;;;;5140816;27;20464;-74
2022/02/28 02:28:31;;;;;;;21.30;12.13;;;;;;;;;;5118521;27;20783;-75
2022/02/28 02:31:02;;;;;;;20.23;12.90;;;;;;;;;;5079634;27;20465;-75
2022/02/28 02:33:30;;;;;;;19.60;12.40;;;;;;;;;;5076290;27;20450;-75
2022/02/28 02:35:59;;;;;;;23.17;12.53;;;;;;;;;;5039189;27;20458;-74
2022/02/28 02:38:34;;;;;;;17.77;10.60;;;;;;;;;;5138894;27;20480;-74
2022/02/28 02:41:03;;;;;;;21.90;12.47;;;;;;;;;;5140149;27;20453;-74
2022/02/28 02:43:31;;;;;;;20.40;11.57;;;;;;;;;;5141004;27;20838;-75
2022/02/28 02:45:59;;;;;;;19.10;10.30;;;;;;;;;;5140709;27;20462;-74
2022/02/28 02:48:28;;;;;;;18.30;11.17;;;;;;;;;;5139673;27;20456;-74
2022/02/28 02:50:58;;;;;;;21.50;10.10;;;;;;;;;;5040109;27;20467;-75
2022/02/28 02:53:26;;;;;;;21.27;12.33;;;;;;;;;;5040928;27;20558;-74
2022/02/28 02:55:56;;;;;;;17.80;10.50;;;;;;;;;;5101893;27;20536;-74
2022/02/28 02:58:24;;;;;;;18.10;10.83;;;;;;;;;;5065805;27;20454;-74
2022/02/28 03:00:56;;;;;;;18.60;11.37;;;;;;;;;;5135948;27;20468;-74
2022/02/28 03:03:24;;;;;;;18.30;12.10;;;;;;;;;;5131439;27;20530;-74
2022/02/28 03:05:54;;;;;;;17.87;10.80;;;;;;;;;;5061259;27;20458;-74
2022/02/28 03:08:23;;;;;;;16.00;10.47;;;;;;;;;;5131798;27;20482;-74
2022/02/28 03:10:50;;;;;;;18.27;11.33;;;;;;;;;;5088469;27;20553;-74
2022/02/28 03:13:21;;;;;;;21.67;12.90;;;;;;;;;;5037658;27;20467;-74
2022/02/28 03:15:48;;;;;;;31.47;12.77;;;;;;;;;;5133013;27;20800;-74
2022/02/28 03:18:16;;;;;;;21.97;12.17;;;;;;;;;;5139519;27;20485;-74
2022/02/28 03:20:44;;;;;;;23.10;12.53;;;;;;;;;;5088226;27;20800;-75
2022/02/28 03:23:12;;;;;;;21.83;12.67;;;;;;;;;;5080656;27;20503;-74
2022/02/28 03:25:40;;;;;;;23.67;12.87;;;;;;;;;;5139393;27;20454;-74
2022/02/28 03:28:07;;;;;;;22.33;11.23;;;;;;;;;;5139201;27;20458;-74
2022/02/28 03:30:37;;;;;;;20.93;13.30;;;;;;;;;;5095194;27;20541;-74
2022/02/28 03:33:05;;;;;;;18.57;10.60;;;;;;;;;;5038423;27;20462;-74
2022/02/28 03:35:33;;;;;;;21.73;12.30;;;;;;;;;;5037592;27;20482;-74
2022/02/28 03:38:00;;;;;;;19.97;11.97;;;;;;;;;;5037984;27;20797;-75
2022/02/28 03:40:28;;;;;;;19.10;12.00;;;;;;;;;;5040090;27;20548;-74
2022/02/28 03:43:01;;;;;;;22.40;12.33;;;;;;;;;;5038617;27;20465;-74
2022/02/28 03:45:29;;;;;;;22.70;12.27;;;;;;;;;;5051263;27;20458;-74
2022/02/28 03:47:59;;;;;;;23.90;12.53;;;;;;;;;;5106948;27;20806;-74
2022/02/28 03:50:27;;;;;;;25.43;12.63;;;;;;;;;;5038910;27;20455;-74
2022/02/28 03:52:55;;;;;;;21.57;11.93;;;;;;;;;;5040166;27;20469;-74
2022/02/28 03:55:23;;;;;;;21.73;12.20;;;;;;;;;;5038957;27;20541;-75
2022/02/28 03:57:53;;;;;;;20.73;12.30;;;;;;;;;;5039299;27;20489;-75
2022/02/28 04:00:21;;;;;;;19.43;11.27;;;;;;;;;;5108200;27;20450;-74
2022/02/28 04:02:49;;;;;;;26.57;12.97;;;;;;;;;;5057500;27;20458;-74
2022/02/28 04:05:19;;;;;;;20.27;11.10;;;;;;;;;;5038117;27;20565;-74
2022/02/28 04:07:47;;;;;;;25.23;14.00;;;;;;;;;;5038015;27;20463;-74
2022/02/28 04:10:16;;;;;;;21.47;12.40;;;;;;;;;;5041381;27;20468;-73
2022/02/28 04:12:44;;;;;;;35.27;19.33;;;;;;;;;;5039833;27;20881;-74
2022/02/28 04:15:12;;;;;;;16.20;12.10;;;;;;;;;;5137304;27;20469;-74
2022/02/28 04:17:39;;;;;;;25.37;14.30;;;;;;;;;;5137277;27;20484;-74
2022/02/28 04:20:08;;;;;;;24.23;12.67;;;;;;;;;;5137908;27;20450;-73
2022/02/28 04:22:38;;;;;;;22.83;11.60;;;;;;;;;;5049587;27;20874;-73
2022/02/28 04:25:06;;;;;;;25.17;12.17;;;;;;;;;;5037909;27;20486;-75
2022/02/28 04:27:34;;;;;;;27.37;13.40;;;;;;;;;;5038318;27;20455;-74
2022/02/28 04:30:02;;;;;;;28.60;14.57;;;;;;;;;;5037219;27;20473;-74
2022/02/28 04:32:32;;;;;;;19.90;12.17;;;;;;;;;;5061979;27;20481;-74
2022/02/28 04:35:00;;;;;;;26.03;13.70;;;;;;;;;;5138220;27;20553;-74
2022/02/28 04:37:28;;;;;;;25.00;13.80;;;;;;;;;;5137933;27;20584;-74
2022/02/28 04:39:57;;;;;;;22.97;12.97;;;;;;;;;;5137691;27;20469;-74
2022/02/28 04:42:25;;;;;;;27.30;13.33;;;;;;;;;;5090401;27;20850;-74
2022/02/28 04:44:53;;;;;;;23.73;13.80;;;;;;;;;;5038596;27;20469;-74
2022/02/28 04:47:21;;;;;;;20.80;12.67;;;;;;;;;;5096037;27;20465;-74
2022/02/28 04:49:49;;;;;;;30.27;15.20;;;;;;;;;;5137916;27;20473;-74
2022/02/28 04:52:16;;;;;;;26.53;13.33;;;;;;;;;;5111685;27;20501;-74
2022/02/28 04:54:44;;;;;;;25.70;14.63;;;;;;;;;;5022406;28;20461;-74
2022/02/28 04:57:14;;;;;;;22.83;13.20;;;;;;;;;;5048012;27;20489;-74
2022/02/28 04:59:43;;;;;;;24.17;14.30;;;;;;;;;;5075525;27;21049;-74
2022/02/28 05:02:11;;;;;;;25.87;14.90;;;;;;;;;;5043464;27;20520;-74
2022/02/28 05:04:40;;;;;;;27.87;14.30;;;;;;;;;;5137264;27;20453;-75
2022/02/28 05:07:08;;;;;;;28.50;15.17;;;;;;;;;;5135434;27;20458;-74
2022/02/28 05:09:40;;;;;;;28.07;14.13;;;;;;;;;;5120000;27;20561;-75
2022/02/28 05:12:09;;;;;;;34.83;16.17;;;;;;;;;;5061311;27;20452;-75
2022/02/28 05:14:39;;;;;;;29.60;14.67;;;;;;;;;;5120677;27;20465;-75
2022/02/28 05:17:15;;;;;;;32.60;16.27;;;;;;;;;;5050650;27;20471;-72
2022/02/28 05:19:43;;;;;;;28.10;14.23;;;;;;;;;;5043561;27;21111;-75
2022/02/28 05:22:11;;;;;;;32.77;15.33;;;;;;;;;;5038604;27;20508;-75
2022/02/28 05:24:42;;;;;;;28.77;14.50;;;;;;;;;;5046757;28;20470;-74
2022/02/28 05:27:10;;;;;;;31.30;15.20;;;;;;;;;;5058270;27;20527;-74
2022/02/28 05:29:39;;;;;;;26.17;15.20;;;;;;;;;;5042061;27;20485;-74
2022/02/28 05:32:08;;;;;;;31.80;15.50;;;;;;;;;;5039545;27;20804;-74
2022/02/28 05:34:35;;;;;;;32.67;15.40;;;;;;;;;;5056698;27;20470;-74
2022/02/28 05:37:03;;;;;;;26.47;14.40;;;;;;;;;;5061635;27;20450;-74
2022/02/28 05:39:31;;;;;;;29.90;15.20;;;;;;;;;;5087207;27;20894;-74
2022/02/28 05:41:59;;;;;;;32.60;16.50;;;;;;;;;;5062591;27;20548;-74
2022/02/28 05:44:26;;;;;;;29.20;16.50;;;;;;;;;;5095192;27;20462;-74
2022/02/28 05:46:56;;;;;;;38.60;16.10;;;;;;;;;;5036224;27;20455;-74
2022/02/28 05:49:24;;;;;;;30.60;15.37;;;;;;;;;;5036388;27;20466;-74
2022/02/28 05:51:52;;;;;;;36.37;16.20;;;;;;;;;;5035264;27;20625;-74
2022/02/28 05:54:22;;;;;;;23.30;11.40;;;;;;;;;;5060101;27;20815;-74
2022/02/28 05:56:51;;;;;;;34.47;17.53;;;;;;;;;;5038392;27;20458;-74
2022/02/28 05:59:20;;;;;;;34.40;17.67;;;;;;;;;;5040510;27;20500;-74
2022/02/28 06:01:48;;;;;;;30.30;16.47;;;;;;;;;;5082873;27;20753;-74
2022/02/28 06:04:22;;;;;;;39.80;17.30;;;;;;;;;;5135129;27;20454;-74
2022/02/28 06:06:49;;;;;;;30.17;17.07;;;;;;;;;;5137090;27;20453;-75
2022/02/28 06:09:17;;;;;;;34.00;15.80;;;;;;;;;;5135280;27;20442;-74
2022/02/28 06:11:49;;;;;;;41.57;17.00;;;;;;;;;;5043172;27;20459;-74
2022/02/28 06:14:20;;;;;;;34.30;16.70;;;;;;;;;;5135593;27;20457;-75
2022/02/28 06:16:48;;;;;;;36.90;18.20;;;;;;;;;;5127930;27;20457;-75
2022/02/28 06:19:18;;;;;;;31.93;14.97;;;;;;;;;;5044722;27;20525;-75
2022/02/28 06:21:47;;;;;;;27.27;13.60;;;;;;;;;;5033460;27;20468;-74
2022/02/28 06:24:16;;;;;;;39.43;19.27;;;;;;;;;;5036038;27;20466;-74
2022/02/28 06:26:44;;;;;;;40.90;18.07;;;;;;;;;;5035281;27;20451;-74
2022/02/28 06:29:12;;;;;;;37.93;19.43;;;;;;;;;;5025512;27;20475;-74
2022/02/28 06:31:44;;;;;;;30.60;16.73;;;;;;;;;;5034573;27;20463;-74
2022/02/28 06:34:13;;;;;;;39.47;20.00;;;;;;;;;;5016401;27;20810;-74
2022/02/28 06:36:44;;;;;;;27.70;16.50;;;;;;;;;;5041960;27;20450;-74
2022/02/28 06:39:23;;;;;;;46.70;17.80;;;;;;;;;;5032670;27;20558;-74
2022/02/28 06:41:55;;;;;;;35.47;17.10;;;;;;;;;;5026331;27;20466;-74
2022/02/28 06:44:26;;;;;;;34.90;19.00;;;;;;;;;;5138348;27;20465;-75
2022/02/28 06:46:54;;;;;;;35.13;17.73;;;;;;;;;;5113897;27;20475;-74
2022/02/28 06:49:22;;;;;;;39.73;17.47;;;;;;;;;;5048681;27;20474;-75
2022/02/28 06:51:50;;;;;;;30.00;16.70;;;;;;;;;;5035050;27;20523;-74
2022/02/28 06:54:20;;;;;;;37.10;17.43;;;;;;;;;;5035925;27;20480;-74
2022/02/28 06:56:48;;;;;;;32.00;14.87;;;;;;;;;;5042836;27;20950;-74
2022/02/28 06:59:18;;;;;;;40.73;19.47;;;;;;;;;;5138028;27;20495;-75
2022/02/28 07:01:51;;;;;;;36.67;18.47;;;;;;;;;;5086373;27;20855;-74
2022/02/28 07:04:22;;;;;;;40.50;19.90;;;;;;;;;;5078986;27;20981;-74
2022/02/28 07:06:51;;;;;;;34.60;17.27;;;;;;;;;;5130719;27;20449;-74
2022/02/28 07:09:20;;;;;;;40.87;19.00;;;;;;;;;;5091720;27;20461;-74
2022/02/28 07:11:48;;;;;;;35.47;17.10;;;;;;;;;;5100916;27;20497;-74
2022/02/28 07:14:18;;;;;;;29.60;15.50;;;;;;;;;;5024546;27;20470;-74
2022/02/28 07:16:46;;;;;;;42.40;18.93;;;;;;;;;;5032825;27;20577;-74
2022/02/28 07:19:21;;;;;;;37.57;19.30;;;;;;;;;;5037981;27;20495;-74
2022/02/28 07:21:58;;;;;;;37.50;17.00;;;;;;;;;;5036201;27;20489;-74
2022/02/28 07:24:27;;;;;;;36.60;16.97;;;;;;;;;;5036320;27;20561;-73
2022/02/28 07:26:55;;;;;;;39.00;18.80;;;;;;;;;;5033646;27;20450;-73
2022/02/28 07:29:23;;;;;;;39.30;18.13;;;;;;;;;;5036116;27;20465;-73
2022/02/28 07:31:54;;;;;;;35.90;16.83;;;;;;;;;;5036020;27;20528;-74
2022/02/28 07:34:22;;;;;;;32.70;15.83;;;;;;;;;;5035770;27;20458;-72
2022/02/28 07:36:51;;;;;;;32.77;15.70;;;;;;;;;;5040307;27;20876;-74
2022/02/28 07:39:35;;;;;;;26.67;15.70;;;;;;;;;;5109113;27;20492;-73
2022/02/28 07:42:09;;;;;;;29.63;15.20;;;;;;;;;;5061941;27;20454;-74
2022/02/28 07:44:36;;;;;;;30.57;13.97;;;;;;;;;;5071100;27;20532;-73
2022/02/28 07:47:14;;;;;;;31.10;16.63;;;;;;;;;;5043597;27;20470;-74
2022/02/28 07:49:42;;;;;;;31.03;16.00;;;;;;;;;;5038444;27;20451;-73
2022/02/28 07:52:15;;;;;;;36.83;17.80;;;;;;;;;;5038557;27;20455;-75
2022/02/28 09:41:04;;;;;;;24.27;12.33;;;;;;;;;;5048231;28;20567;-71
2022/02/28 09:43:35;;;;;;;22.37;12.87;;;;;;;;;;5103250;28;20465;-73
2022/02/28 09:46:10;;;;;;;26.70;13.90;;;;;;;;;;5115469;28;20524;-72
2022/02/28 09:48:40;;;;;;;25.40;14.53;;;;;;;;;;5114613;28;20860;-73
2022/02/28 09:51:08;;;;;;;22.97;13.30;;;;;;;;;;5116096;28;20546;-71
2022/02/28 09:53:38;;;;;;;18.03;11.40;;;;;;;;;;5107297;28;20542;-73
2022/02/28 09:56:12;;;;;;;20.20;11.37;;;;;;;;;;5102625;28;20452;-73
2022/02/28 09:59:05;;;;;;;24.97;12.47;;;;;;;;;;5104917;28;20882;-72
2022/02/28 10:01:34;;;;;;;20.10;9.93;;;;;;;;;;5095337;28;20475;-73
2022/02/28 10:07:22;;;;;;;18.97;11.60;;;;;;;;;;5106584;28;20457;-72
2022/02/28 10:10:07;;;;;;;19.17;11.27;;;;;;;;;;5106543;27;20474;-72
2022/02/28 10:12:43;;;;;;;13.80;9.00;;;;;;;;;;5122832;27;20446;-71
2022/02/28 10:15:14;;;;;;;18.97;11.17;;;;;;;;;;5115944;28;20490;-72
2022/02/28 10:17:43;;;;;;;18.33;11.53;;;;;;;;;;5100368;28;20463;-72
2022/02/28 10:20:16;;;;;;;18.10;11.70;;;;;;;;;;5113643;27;20508;-72
2022/02/28 10:22:46;;;;;;;19.53;10.37;;;;;;;;;;5099655;28;20459;-72
2022/02/28 10:25:31;;;;;;;16.97;10.70;;;;;;;;;;5115090;28;20466;-73
2022/02/28 10:28:11;;;;;;;17.67;10.27;;;;;;;;;;5092127;27;20875;-72
2022/02/28 10:30:39;;;;;;;19.00;12.30;;;;;;;;;;5127616;27;20760;-71
2022/02/28 10:33:17;;;;;;;16.67;11.20;;;;;;;;;;5138839;27;20475;-72
2022/02/28 10:36:10;;;;;;;16.53;9.00;;;;;;;;;;5136909;27;20453;-72
2022/02/28 10:38:41;;;;;;;17.23;10.67;;;;;;;;;;5139315;27;20739;-72
2022/02/28 10:41:20;;;;;;;13.70;9.90;;;;;;;;;;5134705;27;20446;-72
2022/02/28 10:43:52;;;;;;;19.97;11.13;;;;;;;;;;5142067;27;20457;-72
2022/02/28 10:46:23;;;;;;;16.27;9.80;;;;;;;;;;5139914;27;20463;-72
2022/02/28 10:49:04;;;;;;;18.10;10.40;;;;;;;;;;5140548;27;20913;-72
2022/02/28 10:51:38;;;;;;;15.87;10.30;;;;;;;;;;5141644;27;20904;-72
2022/02/28 10:54:15;;;;;;;17.00;9.40;;;;;;;;;;5141041;27;20445;-72
2022/02/28 10:56:50;;;;;;;12.70;8.50;;;;;;;;;;5139318;27;20506;-72
2022/02/28 10:59:25;;;;;;;17.13;9.37;;;;;;;;;;5081793;27;20481;-72
2022/02/28 11:01:57;;;;;;;14.30;9.00;;;;;;;;;;5133128;27;20457;-71
2022/02/28 11:04:39;;;;;;;14.73;10.53;;;;;;;;;;5131894;27;20449;-72
2022/02/28 11:07:09;;;;;;;14.80;9.07;;;;;;;;;;5129954;27;20470;-71
2022/02/28 11:09:45;;;;;;;19.67;11.47;;;;;;;;;;5134492;27;20541;-72
2022/02/28 11:12:22;;;;;;;14.40;10.53;;;;;;;;;;5119290;27;20915;-72
2022/02/28 11:14:55;;;;;;;17.90;11.03;;;;;;;;;;5131615;27;20430;-72
2022/02/28 11:17:25;;;;;;;16.47;10.37;;;;;;;;;;5126474;27;20564;-70
2022/02/28 11:19:55;;;;;;;18.00;10.63;;;;;;;;;;5121448;27;20549;-71
2022/02/28 11:22:26;;;;;;;16.03;9.77;;;;;;;;;;5132295;27;20467;-73
2022/02/28 11:24:57;;;;;;;16.73;10.57;;;;;;;;;;5134336;27;20525;-73
2022/02/28 11:27:29;;;;;;;15.73;9.90;;;;;;;;;;5136715;27;20457;-73
2022/02/28 11:30:02;;;;;;;13.70;9.03;;;;;;;;;;5108609;28;20474;-72
2022/02/28 11:32:43;;;;;;;18.07;9.67;;;;;;;;;;5121677;27;20450;-73
2022/02/28 11:35:33;;;;;;;14.90;10.00;;;;;;;;;;5118062;27;20549;-71
2022/02/28 11:38:02;;;;;;;18.80;11.10;;;;;;;;;;5138843;27;20458;-74
2022/02/28 11:40:36;;;;;;;16.60;11.07;;;;;;;;;;5138741;27;20516;-73
2022/02/28 11:43:15;;;;;;;18.10;12.03;;;;;;;;;;5138441;27;20462;-73
2022/02/28 11:46:01;;;;;;;16.47;12.20;;;;;;;;;;5130468;27;20446;-72
2022/02/28 11:48:35;;;;;;;20.57;13.07;;;;;;;;;;5131462;27;20461;-72
2022/02/28 11:51:03;;;;;;;19.83;12.30;;;;;;;;;;5107217;28;20735;-72
2022/02/28 11:53:48;;;;;;;16.83;11.83;;;;;;;;;;5118931;27;20485;-73
2022/02/28 11:56:57;;;;;;;17.53;12.20;;;;;;;;;;5129646;27;20462;-74
2022/02/28 11:59:35;;;;;;;22.83;14.27;;;;;;;;;;5045935;28;20802;-73
2022/02/28 12:02:14;;;;;;;20.50;12.93;;;;;;;;;;5054956;28;20465;-71
2022/02/28 12:04:48;;;;;;;19.00;11.87;;;;;;;;;;5112416;27;20488;-72
2022/02/28 12:07:39;;;;;;;18.27;12.90;;;;;;;;;;5137078;27;20546;-73
2022/02/28 12:10:17;;;;;;;19.10;11.70;;;;;;;;;;5135379;27;20454;-71
2022/02/28 12:12:57;;;;;;;15.10;9.97;;;;;;;;;;5129702;27;20449;-73
2022/02/28 12:15:28;;;;;;;17.07;12.17;;;;;;;;;;5137723;27;20473;-74
2022/02/28 12:18:14;;;;;;;19.03;11.80;;;;;;;;;;5135956;27;20639;-71
2022/02/28 12:20:45;;;;;;;18.70;11.47;;;;;;;;;;5135749;27;20549;-72
2022/02/28 12:23:16;;;;;;;17.80;11.07;;;;;;;;;;5128150;27;20776;-73
2022/02/28 12:25:46;;;;;;;18.20;11.30;;;;;;;;;;5127000;27;20526;-73
2022/02/28 12:28:17;;;;;;;16.70;10.20;;;;;;;;;;5126099;27;20468;-73
2022/02/28 12:30:47;;;;;;;16.50;10.90;;;;;;;;;;5127360;27;20450;-73
2022/02/28 12:33:22;;;;;;;15.93;9.90;;;;;;;;;;5128399;27;20534;-72
2022/02/28 12:36:06;;;;;;;16.60;10.80;;;;;;;;;;5132776;27;21006;-72
2022/02/28 12:38:42;;;;;;;13.87;9.50;;;;;;;;;;5057105;27;20468;-72
2022/02/28 12:41:23;;;;;;;17.63;11.60;;;;;;;;;;5109318;28;20454;-72
2022/02/28 12:44:04;;;;;;;15.80;10.50;;;;;;;;;;5110477;27;20520;-72
2022/02/28 12:46:38;;;;;;;15.17;10.17;;;;;;;;;;5116310;27;20451;-72
2022/02/28 12:49:15;;;;;;;15.60;10.53;;;;;;;;;;5117362;27;20458;-72
2022/02/28 12:51:52;;;;;;;15.63;10.40;;;;;;;;;;5107765;28;20442;-73
2022/02/28 12:57:11;;;;;;;18.73;11.57;;;;;;;;;;5138704;27;20445;-72
2022/02/28 12:59:45;;;;;;;17.23;10.10;;;;;;;;;;5137749;27;20470;-72
2022/02/28 13:02:17;;;;;;;13.50;9.10;;;;;;;;;;5136841;27;20526;-73
2022/02/28 13:07:44;;;;;;;16.50;11.27;;;;;;;;;;5123988;27;20442;-72
2022/02/28 13:10:22;;;;;;;14.67;9.60;;;;;;;;;;5115473;27;20465;-73
2022/02/28 13:12:54;;;;;;;13.80;9.13;;;;;;;;;;5130708;27;20494;-73
2022/02/28 13:15:43;;;;;;;;;;;;;;;;;;;;;
2022/02/28 13:18:23;;;;;;;12.60;9.03;;;;;;;;;;5125412;27;20446;-74
2022/02/28 13:24:08;;;;;;;21.87;11.63;;;;;;;;;;5070215;27;20567;-74
2022/02/28 13:29:58;;;;;;;15.93;9.23;;;;;;;;;;5107646;28;20877;-73
2022/02/28 13:32:33;;;;;;;10.30;7.30;;;;;;;;;;5116395;28;20912;-72
2022/02/28 13:35:06;;;;;;;15.07;9.87;;;;;;;;;;5127814;27;20454;-72
2022/02/28 13:37:35;;;;;;;15.00;7.63;;;;;;;;;;5112666;27;20541;-72
2022/02/28 13:40:14;;;;;;;14.80;10.20;;;;;;;;;;5128605;27;20569;-71
2022/02/28 13:43:08;;;;;;;;;;;;;;;;;;;;;
2022/02/28 13:45:55;;;;;;;;;;;;;;;;;;;;;
2022/02/28 13:51:52;;;;;;;18.70;10.63;;;;;;;;;;5109084;27;20445;-72
2022/02/28 13:54:36;;;;;;;17.00;11.13;;;;;;;;;;5140969;27;20480;-73
2022/02/28 14:03:35;;;;;;;14.27;8.27;;;;;;;;;;5096085;27;21231;-72
2022/02/28 14:06:28;;;;;;;;;;;;;;;;;;;;;
2022/02/28 14:09:28;;;;;;;14.80;9.57;;;;;;;;;;5126920;27;20470;-74
2022/02/28 14:12:19;;;;;;;14.87;10.17;;;;;;;;;;5136443;27;20452;-74
2022/02/28 14:21:27;;;;;;;15.70;9.43;;;;;;;;;;5137379;27;20878;-71
2022/02/28 14:24:15;;;;;;;13.67;8.63;;;;;;;;;;5153496;27;20449;-71
2022/02/28 14:29:58;;;;;;;19.23;11.07;;;;;;;;;;5129386;27;20452;-70
2022/02/28 14:32:30;;;;;;;35.00;19.77;;;;;;;;;;5135543;27;21130;-72
2022/02/28 14:35:07;;;;;;;12.03;8.60;;;;;;;;;;5138260;27;20511;-71
2022/02/28 14:37:37;;;;;;;11.33;8.33;;;;;;;;;;5134354;27;20457;-71
2022/02/28 14:40:12;;;;;;;13.83;9.53;;;;;;;;;;5137315;27;20517;-73
2022/02/28 14:43:35;;;;;;;13.77;9.37;;;;;;;;;;5131120;27;20594;-70
2022/02/28 14:46:13;;;;;;;12.33;9.10;;;;;;;;;;5131882;27;20487;-73
2022/02/28 14:48:56;;;;;;;13.30;8.27;;;;;;;;;;5134274;27;20456;-73
2022/02/28 14:51:24;;;;;;;14.63;11.10;;;;;;;;;;5134094;27;20465;-73
2022/02/28 14:54:19;;;;;;;12.10;7.47;;;;;;;;;;5135146;27;20454;-73
2022/02/28 15:09:34;;;;;;;12.13;8.40;;;;;;;;;;5116782;27;20434;-73
2022/02/28 15:12:15;;;;;;;11.67;7.53;;;;;;;;;;5021077;27;20779;-73
2022/02/28 15:26:21;;;;;;;12.90;8.60;;;;;;;;;;5073308;27;20465;-72
2022/02/28 15:29:11;;;;;;;10.90;7.77;;;;;;;;;;5139154;27;20446;-71
2022/02/28 15:31:51;;;;;;;13.30;8.50;;;;;;;;;;5118801;28;20478;-71
2022/02/28 15:34:46;;;;;;;15.90;9.80;;;;;;;;;;5118228;27;20443;-74
2022/02/28 15:37:18;;;;;;;13.97;8.27;;;;;;;;;;5135150;27;20560;-73
2022/02/28 15:40:08;;;;;;;17.87;9.83;;;;;;;;;;5138306;27;20572;-71
2022/02/28 15:42:54;;;;;;;14.77;8.07;;;;;;;;;;5120667;27;20466;-74
2022/02/28 15:45:48;;;;;;;13.27;8.93;;;;;;;;;;5081024;27;20465;-72
2022/02/28 15:51:16;;;;;;;15.37;8.80;;;;;;;;;;5120750;27;20944;-73
2022/02/28 15:53:55;;;;;;;19.10;9.87;;;;;;;;;;5080996;27;20925;-71
2022/02/28 15:56:26;;;;;;;14.30;8.27;;;;;;;;;;5116562;27;20845;-72
2022/02/28 15:58:57;;;;;;;15.10;8.57;;;;;;;;;;5136257;27;20475;-73
2022/02/28 16:01:39;;;;;;;13.90;8.80;;;;;;;;;;5142941;27;20484;-73
2022/02/28 16:04:27;;;;;;;13.97;9.40;;;;;;;;;;5153916;27;20469;-73
2022/02/28 16:07:15;;;;;;;16.70;10.53;;;;;;;;;;5128767;27;20447;-73
2022/02/28 16:09:47;;;;;;;15.20;9.87;;;;;;;;;;5136050;27;20882;-73
2022/02/28 16:12:17;;;;;;;18.23;9.77;;;;;;;;;;5136714;27;20581;-73
2022/02/28 16:14:54;;;;;;;15.70;9.40;;;;;;;;;;5129175;27;20450;-73
2022/02/28 16:17:32;;;;;;;15.90;8.73;;;;;;;;;;5138634;27;20485;-74
2022/02/28 16:20:21;;;;;;;15.43;9.60;;;;;;;;;;5132002;27;20494;-73
2022/02/28 16:25:55;;;;;;;14.67;7.90;;;;;;;;;;5138201;27;20464;-74
2022/02/28 16:28:31;;;;;;;13.60;7.87;;;;;;;;;;5154894;27;20512;-73
2022/02/28 16:31:00;;;;;;;12.97;8.83;;;;;;;;;;5157201;27;20967;-74
2022/02/28 16:33:46;;;;;;;15.20;7.53;;;;;;;;;;5158107;27;20469;-74
2022/02/28 16:36:26;;;;;;;12.67;8.00;;;;;;;;;;5158992;27;20489;-75
2022/02/28 16:39:03;;;;;;;12.97;8.20;;;;;;;;;;5156502;27;20456;-74
2022/02/28 16:41:37;;;;;;;13.30;8.40;;;;;;;;;;5158239;27;20477;-75
2022/02/28 16:46:58;;;;;;;14.73;9.13;;;;;;;;;;5076674;28;20503;-73
2022/02/28 16:49:32;;;;;;;14.43;8.63;;;;;;;;;;5110800;27;20551;-74
2022/02/28 16:52:03;;;;;;;18.50;9.40;;;;;;;;;;5116225;27;20483;-74
2022/02/28 16:54:37;;;;;;;15.70;9.07;;;;;;;;;;5132904;27;20462;-74
2022/02/28 16:57:10;;;;;;;14.53;9.00;;;;;;;;;;5121617;27;20441;-73
2022/02/28 16:59:40;;;;;;;13.97;8.00;;;;;;;;;;5133860;27;20529;-74
2022/02/28 17:02:21;;;;;;;13.77;8.77;;;;;;;;;;5134079;27;20461;-74
2022/02/28 17:04:53;;;;;;;12.67;7.63;;;;;;;;;;5135181;27;20454;-74
2022/02/28 17:07:21;;;;;;;14.30;8.40;;;;;;;;;;5137777;27;20965;-74
2022/02/28 17:09:56;;;;;;;14.50;9.20;;;;;;;;;;5136324;27;20450;-75
2022/02/28 17:12:32;;;;;;;11.90;8.00;;;;;;;;;;5117070;28;20454;-74
2022/02/28 17:15:08;;;;;;;16.50;8.80;;;;;;;;;;5124142;27;21066;-74
2022/02/28 17:17:43;;;;;;;16.57;9.30;;;;;;;;;;5134405;27;20885;-74
2022/02/28 17:20:17;;;;;;;15.20;8.60;;;;;;;;;;5131852;27;20481;-75
2022/02/28 17:22:52;;;;;;;16.20;10.70;;;;;;;;;;5116268;27;20542;-74
2022/02/28 17:25:28;;;;;;;15.90;9.17;;;;;;;;;;5113562;28;20490;-75
2022/02/28 17:27:58;;;;;;;16.40;10.07;;;;;;;;;;5114255;28;20462;-74
2022/02/28 17:30:32;;;;;;;15.70;9.10;;;;;;;;;;5133733;27;20904;-73
2022/02/28 17:33:01;;;;;;;17.20;9.50;;;;;;;;;;5114625;28;20464;-74
2022/02/28 17:35:29;;;;;;;19.50;9.90;;;;;;;;;;5114046;28;20528;-74
2022/02/28 17:37:57;;;;;;;18.60;10.83;;;;;;;;;;5113987;28;20523;-74
2022/02/28 17:40:31;;;;;;;12.80;8.53;;;;;;;;;;5113284;28;20624;-75
2022/02/28 17:42:59;;;;;;;16.47;8.63;;;;;;;;;;5122210;27;20461;-74
2022/02/28 17:45:28;;;;;;;13.73;8.47;;;;;;;;;;5123341;28;20461;-74
2022/02/28 17:47:59;;;;;;;16.77;6.57;;;;;;;;;;5131685;28;20469;-75
2022/02/28 17:50:27;;;;;;;15.77;9.33;;;;;;;;;;5135894;27;20528;-74